This is the latest recevied weather packets stored in our database for station/object K4CRS-13. If no packets are shown the sender has not sent any weather packets the latest 10 day(s).
| Time | Temp. | Humidity | Pressure | Rain* | Wind** | Luminosity | Snow |
|---|---|---|---|---|---|---|---|
| 1777598691 | 13.89° C | 83% | 1049.4 hPa | 0 mm | - | 0 W/m² | - |
| 1777598387 | 13.89° C | 85% | 1049 hPa | 0 mm | - | 0 W/m² | - |
| 1777598086 | 13.33° C | 85% | 1048.9 hPa | 0 mm | - | 0 W/m² | - |
| 1777597785 | 13.89° C | 87% | 1048.6 hPa | 0 mm | - | 0 W/m² | - |
| 1777597480 | 13.89° C | 85% | 1048.9 hPa | 0 mm | - | 0 W/m² | - |
| 1777597176 | 13.89° C | 83% | 1048.9 hPa | 0 mm | - | 0 W/m² | - |
| 1777596872 | 13.89° C | 84% | 1048.9 hPa | 0 mm | - | 0 W/m² | - |
| 1777596568 | 13.89° C | 85% | 1048.7 hPa | 0 mm | - | 0 W/m² | - |
| 1777596265 | 14.44° C | 85% | 1048.4 hPa | 0 mm | - | 0 W/m² | - |
| 1777595963 | 14.44° C | 83% | 1048.6 hPa | 0 mm | - | 1 W/m² | - |
| 1777595663 | 15° C | 82% | 1048.9 hPa | 0 mm | - | 1 W/m² | - |
| 1777595358 | 15° C | 80% | 1048.8 hPa | 0 mm | - | 3 W/m² | - |
| 1777595055 | 15° C | 79% | 1048.7 hPa | 0 mm | - | 4 W/m² | - |
| 1777594752 | 15° C | 77% | 1048.4 hPa | 0 mm | - | 5 W/m² | - |
| 1777594448 | 15° C | 78% | 1048.2 hPa | 0 mm | - | 6 W/m² | - |
| 1777594143 | 15.56° C | 77% | 1048.4 hPa | 0 mm | - | 8 W/m² | - |
| 1777593840 | 15.56° C | 76% | 1048.2 hPa | 0 mm | - | 10 W/m² | - |
| 1777593537 | 15.56° C | 72% | 1048.3 hPa | 0 mm | - | 14 W/m² | - |
| 1777593230 | 15.56° C | 71% | 1048.6 hPa | 0 mm | - | 17 W/m² | - |
| 1777592930 | 15.56° C | 71% | 1048.4 hPa | 0 mm | - | 20 W/m² | - |
| 1777592625 | 15.56° C | 72% | 1048.3 hPa | 0 mm | - | 26 W/m² | - |
| 1777592322 | 16.11° C | 70% | 1048.3 hPa | 0 mm | - | 28 W/m² | - |
| 1777592017 | 16.11° C | 67% | 1048.4 hPa | 0 mm | - | 35 W/m² | - |
| 1777591714 | 16.11° C | 67% | 1048.6 hPa | 0 mm | - | 42 W/m² | - |
| 1777591410 | 16.11° C | 64% | 1048.6 hPa | 0 mm | - | 43 W/m² | - |
* Rain latest hour (hover to see other rain measurements)
** Current wind speed in m/s (hover to see current wind gust speed)